sensor_id;sensor_type;location;lat;lon;timestamp;noise_LAeq;noise_LA_min;noise_LA_max;noise_LA01;noise_LA95
66463;Laerm;56827;52.178;4.500;2023-07-08T00:00:04;43.62;35.93;49.66;;
66463;Laerm;56827;52.178;4.500;2023-07-08T00:00:18;42.65;34.84;50.94;;
66463;Laerm;56827;52.178;4.500;2023-07-08T00:00:28;43.90;34.63;49.86;;
66463;Laerm;56827;52.178;4.500;2023-07-08T00:00:39;43.48;34.75;50.73;;
66463;Laerm;56827;52.178;4.500;2023-07-08T00:00:49;42.80;34.54;49.55;;
66463;Laerm;56827;52.178;4.500;2023-07-08T00:00:59;37.58;33.45;47.83;;
66463;Laerm;56827;52.178;4.500;2023-07-08T00:01:11;37.94;33.95;47.11;;
66463;Laerm;56827;52.178;4.500;2023-07-08T00:01:22;36.71;33.98;42.36;;
66463;Laerm;56827;52.178;4.500;2023-07-08T00:01:32;40.39;34.47;48.37;;
66463;Laerm;56827;52.178;4.500;2023-07-08T00:01:42;43.73;34.95;49.68;;
66463;Laerm;56827;52.178;4.500;2023-07-08T00:01:54;41.75;38.18;46.32;;
66463;Laerm;56827;52.178;4.500;2023-07-08T00:02:07;44.15;38.63;48.60;;
66463;Laerm;56827;52.178;4.500;2023-07-08T00:02:18;43.26;34.39;51.54;;
66463;Laerm;56827;52.178;4.500;2023-07-08T00:02:28;40.03;35.28;45.58;;
66463;Laerm;56827;52.178;4.500;2023-07-08T00:02:39;39.09;36.22;45.16;;
66463;Laerm;56827;52.178;4.500;2023-07-08T00:02:50;38.59;34.61;43.70;;
66463;Laerm;56827;52.178;4.500;2023-07-08T00:03:00;40.96;34.31;48.84;;
66463;Laerm;56827;52.178;4.500;2023-07-08T00:03:11;42.94;35.14;49.49;;
66463;Laerm;56827;52.178;4.500;2023-07-08T00:03:21;44.81;37.64;50.37;;
66463;Laerm;56827;52.178;4.500;2023-07-08T00:03:31;46.93;37.20;60.10;;
66463;Laerm;56827;52.178;4.500;2023-07-08T00:03:42;42.85;38.20;47.66;;
66463;Laerm;56827;52.178;4.500;2023-07-08T00:03:52;40.94;36.61;47.08;;
66463;Laerm;56827;52.178;4.500;2023-07-08T00:04:02;38.91;35.09;44.11;;
66463;Laerm;56827;52.178;4.500;2023-07-08T00:04:13;36.32;34.50;41.25;;
66463;Laerm;56827;52.178;4.500;2023-07-08T00:04:24;35.23;33.07;41.51;;
66463;Laerm;56827;52.178;4.500;2023-07-08T00:04:36;36.80;32.48;49.27;;
66463;Laerm;56827;52.178;4.500;2023-07-08T00:04:46;40.97;33.57;50.25;;
66463;Laerm;56827;52.178;4.500;2023-07-08T00:04:56;43.30;33.75;48.31;;
66463;Laerm;56827;52.178;4.500;2023-07-08T00:05:07;44.17;34.01;49.76;;
66463;Laerm;56827;52.178;4.500;2023-07-08T00:05:18;45.38;38.72;50.53;;
66463;Laerm;56827;52.178;4.500;2023-07-08T00:05:29;42.41;35.76;50.00;;
66463;Laerm;56827;52.178;4.500;2023-07-08T00:05:39;40.60;34.09;46.86;;
66463;Laerm;56827;52.178;4.500;2023-07-08T00:05:51;42.28;34.07;49.32;;
66463;Laerm;56827;52.178;4.500;2023-07-08T00:06:03;42.72;35.12;50.00;;
66463;Laerm;56827;52.178;4.500;2023-07-08T00:06:17;36.77;34.33;41.76;;
66463;Laerm;56827;52.178;4.500;2023-07-08T00:06:28;35.84;33.85;38.72;;
66463;Laerm;56827;52.178;4.500;2023-07-08T00:06:38;35.20;32.85;39.77;;
66463;Laerm;56827;52.178;4.500;2023-07-08T00:06:48;35.21;33.42;37.24;;
66463;Laerm;56827;52.178;4.500;2023-07-08T00:06:59;34.81;32.44;39.60;;
66463;Laerm;56827;52.178;4.500;2023-07-08T00:07:12;38.42;35.06;44.81;;
66463;Laerm;56827;52.178;4.500;2023-07-08T00:07:26;44.44;35.50;52.66;;
66463;Laerm;56827;52.178;4.500;2023-07-08T00:07:37;47.81;40.57;53.17;;
66463;Laerm;56827;52.178;4.500;2023-07-08T00:07:47;44.79;39.28;53.52;;
66463;Laerm;56827;52.178;4.500;2023-07-08T00:07:57;46.91;39.57;51.91;;
66463;Laerm;56827;52.178;4.500;2023-07-08T00:08:11;44.06;37.65;49.95;;
66463;Laerm;56827;52.178;4.500;2023-07-08T00:08:22;38.21;32.86;48.84;;
66463;Laerm;56827;52.178;4.500;2023-07-08T00:08:33;35.88;33.26;40.33;;
66463;Laerm;56827;52.178;4.500;2023-07-08T00:08:43;35.91;33.21;42.64;;
66463;Laerm;56827;52.178;4.500;2023-07-08T00:08:53;35.51;33.08;38.29;;
66463;Laerm;56827;52.178;4.500;2023-07-08T00:09:07;44.31;34.37;55.71;;
66463;Laerm;56827;52.178;4.500;2023-07-08T00:09:18;44.44;35.39;55.23;;
66463;Laerm;56827;52.178;4.500;2023-07-08T00:09:28;45.79;36.71;51.07;;
66463;Laerm;56827;52.178;4.500;2023-07-08T00:09:40;46.25;33.27;52.09;;
66463;Laerm;56827;52.178;4.500;2023-07-08T00:09:50;45.47;34.91;51.46;;
66463;Laerm;56827;52.178;4.500;2023-07-08T00:10:00;41.69;35.25;49.96;;
66463;Laerm;56827;52.178;4.500;2023-07-08T00:10:21;41.15;36.21;49.64;;
66463;Laerm;56827;52.178;4.500;2023-07-08T00:10:32;44.76;37.22;52.34;;
66463;Laerm;56827;52.178;4.500;2023-07-08T00:10:42;46.41;40.31;52.05;;
66463;Laerm;56827;52.178;4.500;2023-07-08T00:10:52;41.58;36.12;50.23;;
66463;Laerm;56827;52.178;4.500;2023-07-08T00:11:07;36.67;33.99;45.99;;
66463;Laerm;56827;52.178;4.500;2023-07-08T00:11:18;37.35;34.45;45.12;;
66463;Laerm;56827;52.178;4.500;2023-07-08T00:11:28;37.61;34.74;41.45;;
66463;Laerm;56827;52.178;4.500;2023-07-08T00:11:39;38.66;34.94;44.78;;
66463;Laerm;56827;52.178;4.500;2023-07-08T00:11:49;43.21;32.94;49.75;;
66463;Laerm;56827;52.178;4.500;2023-07-08T00:11:59;43.44;35.99;48.91;;
66463;Laerm;56827;52.178;4.500;2023-07-08T00:12:10;43.35;33.11;49.50;;
66463;Laerm;56827;52.178;4.500;2023-07-08T00:12:21;40.30;33.63;47.69;;
66463;Laerm;56827;52.178;4.500;2023-07-08T00:12:31;38.95;34.35;44.98;;
66463;Laerm;56827;52.178;4.500;2023-07-08T00:12:42;40.78;32.74;49.21;;
66463;Laerm;56827;52.178;4.500;2023-07-08T00:12:53;43.72;35.21;48.93;;
66463;Laerm;56827;52.178;4.500;2023-07-08T00:13:04;43.91;36.35;49.28;;
66463;Laerm;56827;52.178;4.500;2023-07-08T00:13:14;41.24;32.86;48.74;;
66463;Laerm;56827;52.178;4.500;2023-07-08T00:13:24;38.19;32.81;43.85;;
66463;Laerm;56827;52.178;4.500;2023-07-08T00:13:34;38.22;33.15;44.54;;
66463;Laerm;56827;52.178;4.500;2023-07-08T00:13:45;36.48;32.94;41.34;;
66463;Laerm;56827;52.178;4.500;2023-07-08T00:13:55;36.40;32.29;43.15;;
66463;Laerm;56827;52.178;4.500;2023-07-08T00:14:05;37.32;33.58;49.62;;
66463;Laerm;56827;52.178;4.500;2023-07-08T00:14:16;35.40;33.43;40.51;;
66463;Laerm;56827;52.178;4.500;2023-07-08T00:14:26;39.23;34.82;42.53;;
66463;Laerm;56827;52.178;4.500;2023-07-08T00:14:36;38.55;35.94;43.70;;
66463;Laerm;56827;52.178;4.500;2023-07-08T00:14:46;44.23;35.30;51.73;;
66463;Laerm;56827;52.178;4.500;2023-07-08T00:14:57;45.06;34.39;50.17;;
66463;Laerm;56827;52.178;4.500;2023-07-08T00:15:07;40.24;33.80;45.31;;
66463;Laerm;56827;52.178;4.500;2023-07-08T00:15:18;42.60;34.57;47.91;;
66463;Laerm;56827;52.178;4.500;2023-07-08T00:15:30;41.82;32.67;49.71;;
66463;Laerm;56827;52.178;4.500;2023-07-08T00:15:44;40.90;33.41;47.14;;
66463;Laerm;56827;52.178;4.500;2023-07-08T00:15:54;43.44;35.59;48.19;;
66463;Laerm;56827;52.178;4.500;2023-07-08T00:16:06;41.46;34.74;47.38;;
66463;Laerm;56827;52.178;4.500;2023-07-08T00:16:18;38.46;33.65;47.05;;
66463;Laerm;56827;52.178;4.500;2023-07-08T00:16:29;35.75;32.48;46.28;;
66463;Laerm;56827;52.178;4.500;2023-07-08T00:16:39;36.39;32.32;44.13;;
66463;Laerm;56827;52.178;4.500;2023-07-08T00:16:49;41.13;33.49;49.74;;
66463;Laerm;56827;52.178;4.500;2023-07-08T00:17:00;44.53;37.16;50.31;;
66463;Laerm;56827;52.178;4.500;2023-07-08T00:17:10;43.59;35.41;48.91;;
66463;Laerm;56827;52.178;4.500;2023-07-08T00:17:21;42.51;34.04;49.27;;
66463;Laerm;56827;52.178;4.500;2023-07-08T00:17:31;42.73;35.87;47.26;;
66463;Laerm;56827;52.178;4.500;2023-07-08T00:17:41;44.55;39.36;48.87;;
66463;Laerm;56827;52.178;4.500;2023-07-08T00:17:52;44.42;34.24;49.71;;
66463;Laerm;56827;52.178;4.500;2023-07-08T00:18:08;42.01;33.96;47.31;;
66463;Laerm;56827;52.178;4.500;2023-07-08T00:18:19;41.48;34.12;48.07;;
66463;Laerm;56827;52.178;4.500;2023-07-08T00:18:30;43.68;36.42;49.11;;
66463;Laerm;56827;52.178;4.500;2023-07-08T00:18:40;44.73;35.08;51.98;;
66463;Laerm;56827;52.178;4.500;2023-07-08T00:18:50;42.00;33.43;52.00;;
66463;Laerm;56827;52.178;4.500;2023-07-08T00:19:01;42.05;38.13;47.85;;
66463;Laerm;56827;52.178;4.500;2023-07-08T00:19:11;40.81;36.86;50.02;;
66463;Laerm;56827;52.178;4.500;2023-07-08T00:19:21;41.53;36.45;48.87;;
66463;Laerm;56827;52.178;4.500;2023-07-08T00:19:33;42.29;35.84;48.82;;
66463;Laerm;56827;52.178;4.500;2023-07-08T00:19:44;43.31;38.91;48.24;;
66463;Laerm;56827;52.178;4.500;2023-07-08T00:19:54;41.96;36.16;48.33;;
66463;Laerm;56827;52.178;4.500;2023-07-08T00:20:14;42.16;36.18;49.74;;
66463;Laerm;56827;52.178;4.500;2023-07-08T00:20:37;43.72;35.70;49.33;;
66463;Laerm;56827;52.178;4.500;2023-07-08T00:20:49;38.99;34.80;48.75;;
66463;Laerm;56827;52.178;4.500;2023-07-08T00:20:59;36.77;34.25;46.14;;
66463;Laerm;56827;52.178;4.500;2023-07-08T00:21:11;40.03;36.97;48.20;;
66463;Laerm;56827;52.178;4.500;2023-07-08T00:21:24;41.43;38.62;50.31;;
66463;Laerm;56827;52.178;4.500;2023-07-08T00:21:35;42.89;36.80;51.22;;
66463;Laerm;56827;52.178;4.500;2023-07-08T00:21:45;45.02;34.22;50.36;;
66463;Laerm;56827;52.178;4.500;2023-07-08T00:21:56;43.80;34.31;48.38;;
66463;Laerm;56827;52.178;4.500;2023-07-08T00:22:13;40.76;35.00;48.94;;
66463;Laerm;56827;52.178;4.500;2023-07-08T00:22:24;41.73;34.11;49.64;;
66463;Laerm;56827;52.178;4.500;2023-07-08T00:22:34;43.74;33.97;51.17;;
66463;Laerm;56827;52.178;4.500;2023-07-08T00:22:46;38.70;32.98;48.58;;
66463;Laerm;56827;52.178;4.500;2023-07-08T00:23:00;36.51;32.50;48.51;;
66463;Laerm;56827;52.178;4.500;2023-07-08T00:23:11;36.54;32.37;48.18;;
66463;Laerm;56827;52.178;4.500;2023-07-08T00:23:21;38.21;32.48;47.68;;
66463;Laerm;56827;52.178;4.500;2023-07-08T00:23:31;42.62;32.92;49.52;;
66463;Laerm;56827;52.178;4.500;2023-07-08T00:23:48;47.72;40.14;55.40;;
66463;Laerm;56827;52.178;4.500;2023-07-08T00:23:58;43.89;33.88;54.23;;
66463;Laerm;56827;52.178;4.500;2023-07-08T00:24:08;44.27;36.94;49.05;;
66463;Laerm;56827;52.178;4.500;2023-07-08T00:24:19;43.74;33.22;49.70;;
66463;Laerm;56827;52.178;4.500;2023-07-08T00:24:29;42.40;34.06;47.74;;
66463;Laerm;56827;52.178;4.500;2023-07-08T00:24:41;39.96;34.53;47.19;;
66463;Laerm;56827;52.178;4.500;2023-07-08T00:24:51;42.44;33.84;47.63;;
66463;Laerm;56827;52.178;4.500;2023-07-08T00:25:01;44.35;34.71;49.32;;
66463;Laerm;56827;52.178;4.500;2023-07-08T00:25:21;42.23;34.70;48.22;;
66463;Laerm;56827;52.178;4.500;2023-07-08T00:25:32;40.97;36.06;49.16;;
66463;Laerm;56827;52.178;4.500;2023-07-08T00:25:42;41.25;35.84;47.54;;
66463;Laerm;56827;52.178;4.500;2023-07-08T00:25:53;42.24;35.49;48.26;;
66463;Laerm;56827;52.178;4.500;2023-07-08T00:26:07;44.24;34.12;49.90;;
66463;Laerm;56827;52.178;4.500;2023-07-08T00:26:20;44.50;34.41;50.78;;
66463;Laerm;56827;52.178;4.500;2023-07-08T00:26:31;41.83;32.56;49.38;;
66463;Laerm;56827;52.178;4.500;2023-07-08T00:26:42;41.01;33.14;50.52;;
66463;Laerm;56827;52.178;4.500;2023-07-08T00:26:52;40.82;33.44;51.05;;
66463;Laerm;56827;52.178;4.500;2023-07-08T00:27:02;42.37;33.41;49.52;;
66463;Laerm;56827;52.178;4.500;2023-07-08T00:27:13;41.19;34.27;50.07;;
66463;Laerm;56827;52.178;4.500;2023-07-08T00:27:23;37.31;35.43;39.90;;
66463;Laerm;56827;52.178;4.500;2023-07-08T00:27:33;36.39;33.93;41.88;;
66463;Laerm;56827;52.178;4.500;2023-07-08T00:27:44;35.62;33.08;39.26;;
66463;Laerm;56827;52.178;4.500;2023-07-08T00:27:54;35.55;33.58;41.54;;
66463;Laerm;56827;52.178;4.500;2023-07-08T00:28:08;35.94;33.74;38.89;;
66463;Laerm;56827;52.178;4.500;2023-07-08T00:28:19;36.66;35.04;38.69;;
66463;Laerm;56827;52.178;4.500;2023-07-08T00:28:30;35.26;33.33;38.77;;
66463;Laerm;56827;52.178;4.500;2023-07-08T00:28:40;37.15;32.77;43.10;;
66463;Laerm;56827;52.178;4.500;2023-07-08T00:28:50;43.16;34.62;49.29;;
66463;Laerm;56827;52.178;4.500;2023-07-08T00:29:00;46.41;35.65;51.57;;
66463;Laerm;56827;52.178;4.500;2023-07-08T00:29:11;42.98;33.97;51.48;;
66463;Laerm;56827;52.178;4.500;2023-07-08T00:29:22;38.96;35.92;43.02;;
66463;Laerm;56827;52.178;4.500;2023-07-08T00:29:32;45.24;36.54;55.35;;
66463;Laerm;56827;52.178;4.500;2023-07-08T00:29:42;47.83;35.96;60.63;;
66463;Laerm;56827;52.178;4.500;2023-07-08T00:29:53;41.03;35.64;53.32;;
66463;Laerm;56827;52.178;4.500;2023-07-08T00:30:23;40.50;35.03;47.57;;
66463;Laerm;56827;52.178;4.500;2023-07-08T00:30:33;44.28;33.04;52.29;;
66463;Laerm;56827;52.178;4.500;2023-07-08T00:30:44;37.31;35.25;44.99;;
66463;Laerm;56827;52.178;4.500;2023-07-08T00:30:54;39.27;36.43;49.53;;
66463;Laerm;56827;52.178;4.500;2023-07-08T00:31:09;39.02;34.20;50.54;;
66463;Laerm;56827;52.178;4.500;2023-07-08T00:31:20;41.86;33.42;51.79;;
66463;Laerm;56827;52.178;4.500;2023-07-08T00:31:33;44.14;33.54;52.33;;
66463;Laerm;56827;52.178;4.500;2023-07-08T00:31:43;43.25;33.43;49.91;;
66463;Laerm;56827;52.178;4.500;2023-07-08T00:31:54;42.01;34.53;52.66;;
66463;Laerm;56827;52.178;4.500;2023-07-08T00:32:11;42.67;35.53;49.47;;
66463;Laerm;56827;52.178;4.500;2023-07-08T00:32:22;43.03;34.15;49.12;;
66463;Laerm;56827;52.178;4.500;2023-07-08T00:32:32;43.45;34.78;49.41;;
66463;Laerm;56827;52.178;4.500;2023-07-08T00:32:42;38.44;35.01;44.69;;
66463;Laerm;56827;52.178;4.500;2023-07-08T00:32:53;36.57;34.32;42.45;;
66463;Laerm;56827;52.178;4.500;2023-07-08T00:33:05;37.44;33.29;44.27;;
66463;Laerm;56827;52.178;4.500;2023-07-08T00:33:15;41.87;33.81;48.54;;
66463;Laerm;56827;52.178;4.500;2023-07-08T00:33:26;42.73;33.94;48.21;;
66463;Laerm;56827;52.178;4.500;2023-07-08T00:33:36;45.21;32.85;51.16;;
66463;Laerm;56827;52.178;4.500;2023-07-08T00:33:47;41.75;32.51;47.72;;
66463;Laerm;56827;52.178;4.500;2023-07-08T00:33:57;41.69;32.45;46.23;;
66463;Laerm;56827;52.178;4.500;2023-07-08T00:34:07;43.63;34.13;48.32;;
66463;Laerm;56827;52.178;4.500;2023-07-08T00:34:17;41.46;35.37;48.67;;
66463;Laerm;56827;52.178;4.500;2023-07-08T00:34:28;38.69;33.44;43.95;;
66463;Laerm;56827;52.178;4.500;2023-07-08T00:34:38;41.14;34.92;48.30;;
66463;Laerm;56827;52.178;4.500;2023-07-08T00:34:48;42.27;34.80;47.32;;
66463;Laerm;56827;52.178;4.500;2023-07-08T00:34:58;43.81;35.08;53.74;;
66463;Laerm;56827;52.178;4.500;2023-07-08T00:35:09;42.95;34.65;48.91;;
66463;Laerm;56827;52.178;4.500;2023-07-08T00:35:20;36.50;32.48;45.43;;
66463;Laerm;56827;52.178;4.500;2023-07-08T00:35:44;35.00;32.82;37.64;;
66463;Laerm;56827;52.178;4.500;2023-07-08T00:35:55;35.06;32.88;39.85;;
66463;Laerm;56827;52.178;4.500;2023-07-08T00:36:08;35.26;32.54;41.10;;
66463;Laerm;56827;52.178;4.500;2023-07-08T00:36:20;36.67;32.70;42.69;;
66463;Laerm;56827;52.178;4.500;2023-07-08T00:36:30;41.50;33.40;47.98;;
66463;Laerm;56827;52.178;4.500;2023-07-08T00:36:41;45.87;34.17;52.07;;
66463;Laerm;56827;52.178;4.500;2023-07-08T00:36:51;45.19;32.94;51.12;;
66463;Laerm;56827;52.178;4.500;2023-07-08T00:37:01;41.08;35.66;49.52;;
66463;Laerm;56827;52.178;4.500;2023-07-08T00:37:14;35.02;31.92;39.58;;
66463;Laerm;56827;52.178;4.500;2023-07-08T00:37:25;34.46;32.97;36.45;;
66463;Laerm;56827;52.178;4.500;2023-07-08T00:37:39;35.44;32.23;41.12;;
66463;Laerm;56827;52.178;4.500;2023-07-08T00:37:50;38.60;31.82;44.17;;
66463;Laerm;56827;52.178;4.500;2023-07-08T00:38:35;40.63;32.12;47.99;;
66463;Laerm;56827;52.178;4.500;2023-07-08T00:38:39;42.69;32.91;50.89;;
66463;Laerm;56827;52.178;4.500;2023-07-08T00:38:55;34.27;31.41;39.66;;
66463;Laerm;56827;52.178;4.500;2023-07-08T00:39:08;34.28;32.32;36.49;;
66463;Laerm;56827;52.178;4.500;2023-07-08T00:39:23;33.50;31.75;36.10;;
66463;Laerm;56827;52.178;4.500;2023-07-08T00:39:34;34.05;32.45;35.92;;
66463;Laerm;56827;52.178;4.500;2023-07-08T00:39:44;34.15;32.27;36.42;;
66463;Laerm;56827;52.178;4.500;2023-07-08T00:39:54;34.47;31.88;36.43;;
66463;Laerm;56827;52.178;4.500;2023-07-08T00:40:15;35.01;33.08;38.67;;
66463;Laerm;56827;52.178;4.500;2023-07-08T00:40:26;41.52;33.25;49.15;;
66463;Laerm;56827;52.178;4.500;2023-07-08T00:40:36;45.33;33.30;52.01;;
66463;Laerm;56827;52.178;4.500;2023-07-08T00:40:50;44.16;33.39;51.24;;
66463;Laerm;56827;52.178;4.500;2023-07-08T00:41:08;37.00;32.25;44.06;;
66463;Laerm;56827;52.178;4.500;2023-07-08T00:41:35;35.74;33.76;39.45;;
66463;Laerm;56827;52.178;4.500;2023-07-08T00:41:46;35.03;32.25;39.89;;
66463;Laerm;56827;52.178;4.500;2023-07-08T00:41:58;34.50;31.94;39.60;;
66463;Laerm;56827;52.178;4.500;2023-07-08T00:42:17;34.65;32.34;43.32;;
66463;Laerm;56827;52.178;4.500;2023-07-08T00:42:28;35.80;32.96;42.88;;
66463;Laerm;56827;52.178;4.500;2023-07-08T00:42:38;36.08;33.27;40.94;;
66463;Laerm;56827;52.178;4.500;2023-07-08T00:42:49;38.34;34.29;46.15;;
66463;Laerm;56827;52.178;4.500;2023-07-08T00:42:59;42.63;33.88;50.28;;
66463;Laerm;56827;52.178;4.500;2023-07-08T00:43:10;44.96;32.51;50.70;;
66463;Laerm;56827;52.178;4.500;2023-07-08T00:43:22;40.52;32.67;49.57;;
66463;Laerm;56827;52.178;4.500;2023-07-08T00:43:39;36.53;31.91;47.75;;
66463;Laerm;56827;52.178;4.500;2023-07-08T00:43:53;37.14;31.62;49.03;;
66463;Laerm;56827;52.178;4.500;2023-07-08T00:44:04;39.97;32.49;50.40;;
66463;Laerm;56827;52.178;4.500;2023-07-08T00:44:14;41.98;32.83;49.34;;
66463;Laerm;56827;52.178;4.500;2023-07-08T00:44:25;40.78;32.39;51.74;;
66463;Laerm;56827;52.178;4.500;2023-07-08T00:44:35;34.82;32.90;40.39;;
66463;Laerm;56827;52.178;4.500;2023-07-08T00:44:46;34.41;32.32;45.68;;
66463;Laerm;56827;52.178;4.500;2023-07-08T00:44:58;36.17;32.28;48.46;;
66463;Laerm;56827;52.178;4.500;2023-07-08T00:45:13;35.17;32.30;46.80;;
66463;Laerm;56827;52.178;4.500;2023-07-08T00:45:48;36.62;33.72;42.14;;
66463;Laerm;56827;52.178;4.500;2023-07-08T00:46:03;39.52;33.61;46.52;;
66463;Laerm;56827;52.178;4.500;2023-07-08T00:46:45;40.10;32.34;53.18;;
66463;Laerm;56827;52.178;4.500;2023-07-08T00:47:00;34.22;32.27;39.17;;
66463;Laerm;56827;52.178;4.500;2023-07-08T00:47:12;34.49;32.67;38.39;;
66463;Laerm;56827;52.178;4.500;2023-07-08T00:47:24;34.37;32.44;37.13;;
66463;Laerm;56827;52.178;4.500;2023-07-08T00:47:35;35.34;32.54;39.68;;
66463;Laerm;56827;52.178;4.500;2023-07-08T00:47:45;36.80;33.05;42.23;;
66463;Laerm;56827;52.178;4.500;2023-07-08T00:47:56;35.37;32.19;41.48;;
66463;Laerm;56827;52.178;4.500;2023-07-08T00:48:30;33.92;32.10;36.95;;
66463;Laerm;56827;52.178;4.500;2023-07-08T00:48:41;38.20;32.64;45.79;;
66463;Laerm;56827;52.178;4.500;2023-07-08T00:49:51;39.07;31.75;52.67;;
66463;Laerm;56827;52.178;4.500;2023-07-08T00:50:07;34.70;32.62;42.15;;
66463;Laerm;56827;52.178;4.500;2023-07-08T00:50:18;34.38;32.16;37.31;;
66463;Laerm;56827;52.178;4.500;2023-07-08T00:50:29;37.81;32.54;44.01;;
66463;Laerm;56827;52.178;4.500;2023-07-08T00:50:39;44.29;32.72;52.16;;
66463;Laerm;56827;52.178;4.500;2023-07-08T00:50:50;45.34;36.10;51.73;;
66463;Laerm;56827;52.178;4.500;2023-07-08T00:51:00;41.93;35.21;50.22;;
66463;Laerm;56827;52.178;4.500;2023-07-08T00:51:10;35.60;33.14;44.76;;
66463;Laerm;56827;52.178;4.500;2023-07-08T00:51:22;37.68;31.56;47.08;;
66463;Laerm;56827;52.178;4.500;2023-07-08T00:51:38;36.02;31.89;44.13;;
66463;Laerm;56827;52.178;4.500;2023-07-08T00:51:49;39.02;33.77;49.97;;
66463;Laerm;56827;52.178;4.500;2023-07-08T00:52:18;42.89;34.35;49.07;;
66463;Laerm;56827;52.178;4.500;2023-07-08T00:52:29;41.79;33.26;52.31;;
66463;Laerm;56827;52.178;4.500;2023-07-08T00:52:40;42.02;32.70;49.70;;
66463;Laerm;56827;52.178;4.500;2023-07-08T00:52:50;40.68;31.71;49.10;;
66463;Laerm;56827;52.178;4.500;2023-07-08T00:53:33;40.51;31.90;48.64;;
66463;Laerm;56827;52.178;4.500;2023-07-08T00:53:44;34.44;32.40;39.11;;
66463;Laerm;56827;52.178;4.500;2023-07-08T00:53:54;36.95;34.13;41.11;;
66463;Laerm;56827;52.178;4.500;2023-07-08T00:54:05;40.95;35.02;48.32;;
66463;Laerm;56827;52.178;4.500;2023-07-08T00:54:16;41.04;35.27;46.93;;
66463;Laerm;56827;52.178;4.500;2023-07-08T00:54:26;42.79;37.59;46.98;;
66463;Laerm;56827;52.178;4.500;2023-07-08T00:54:37;40.99;36.13;46.53;;
66463;Laerm;56827;52.178;4.500;2023-07-08T00:54:54;44.04;35.01;49.99;;
66463;Laerm;56827;52.178;4.500;2023-07-08T00:55:06;45.98;33.32;50.77;;
66463;Laerm;56827;52.178;4.500;2023-07-08T00:55:17;37.71;32.02;46.69;;
66463;Laerm;56827;52.178;4.500;2023-07-08T00:55:27;39.33;32.96;49.22;;
66463;Laerm;56827;52.178;4.500;2023-07-08T00:55:37;39.86;31.77;46.44;;
66463;Laerm;56827;52.178;4.500;2023-07-08T00:55:48;43.87;33.15;49.57;;
66463;Laerm;56827;52.178;4.500;2023-07-08T00:56:17;44.43;32.77;49.86;;
66463;Laerm;56827;52.178;4.500;2023-07-08T00:56:33;42.65;31.79;50.69;;
66463;Laerm;56827;52.178;4.500;2023-07-08T00:56:58;39.29;31.81;47.80;;
66463;Laerm;56827;52.178;4.500;2023-07-08T00:57:09;42.10;32.43;49.57;;
66463;Laerm;56827;52.178;4.500;2023-07-08T00:57:21;43.94;33.93;49.67;;
66463;Laerm;56827;52.178;4.500;2023-07-08T00:57:34;43.36;32.96;49.18;;
66463;Laerm;56827;52.178;4.500;2023-07-08T00:57:45;43.95;32.11;49.17;;
66463;Laerm;56827;52.178;4.500;2023-07-08T00:57:55;44.48;37.72;52.43;;
66463;Laerm;56827;52.178;4.500;2023-07-08T00:58:06;41.97;34.89;48.30;;
66463;Laerm;56827;52.178;4.500;2023-07-08T00:58:17;37.90;33.04;43.48;;
66463;Laerm;56827;52.178;4.500;2023-07-08T00:58:31;37.87;32.84;43.04;;
66463;Laerm;56827;52.178;4.500;2023-07-08T00:58:54;41.94;33.25;48.84;;
66463;Laerm;56827;52.178;4.500;2023-07-08T00:59:07;43.52;34.23;49.98;;
66463;Laerm;56827;52.178;4.500;2023-07-08T00:59:26;43.36;37.73;48.47;;
66463;Laerm;56827;52.178;4.500;2023-07-08T00:59:39;42.36;33.09;47.26;;
66463;Laerm;56827;52.178;4.500;2023-07-08T01:00:04;36.41;31.25;43.23;;
66463;Laerm;56827;52.178;4.500;2023-07-08T01:00:15;42.64;31.89;53.23;;
66463;Laerm;56827;52.178;4.500;2023-07-08T01:00:26;36.78;32.49;45.91;;
66463;Laerm;56827;52.178;4.500;2023-07-08T01:00:37;38.36;32.52;53.88;;
66463;Laerm;56827;52.178;4.500;2023-07-08T01:00:48;44.32;34.36;57.56;;
66463;Laerm;56827;52.178;4.500;2023-07-08T01:01:00;40.05;35.92;44.67;;
66463;Laerm;56827;52.178;4.500;2023-07-08T01:01:11;40.23;36.22;45.02;;
66463;Laerm;56827;52.178;4.500;2023-07-08T01:01:21;40.03;35.98;44.63;;
66463;Laerm;56827;52.178;4.500;2023-07-08T01:01:32;40.62;35.84;48.14;;
66463;Laerm;56827;52.178;4.500;2023-07-08T01:01:44;43.89;34.78;50.29;;
66463;Laerm;56827;52.178;4.500;2023-07-08T01:01:55;38.42;32.20;50.16;;
66463;Laerm;56827;52.178;4.500;2023-07-08T01:02:09;38.76;32.06;46.54;;
66463;Laerm;56827;52.178;4.500;2023-07-08T01:02:21;40.30;32.05;57.73;;
66463;Laerm;56827;52.178;4.500;2023-07-08T01:02:33;41.66;36.94;49.08;;
66463;Laerm;56827;52.178;4.500;2023-07-08T01:02:46;40.24;34.02;47.80;;
66463;Laerm;56827;52.178;4.500;2023-07-08T01:02:58;42.18;33.01;49.38;;
66463;Laerm;56827;52.178;4.500;2023-07-08T01:03:08;43.58;35.71;51.00;;
66463;Laerm;56827;52.178;4.500;2023-07-08T01:03:18;44.46;34.55;49.64;;
66463;Laerm;56827;52.178;4.500;2023-07-08T01:03:30;43.49;32.69;52.22;;
66463;Laerm;56827;52.178;4.500;2023-07-08T01:03:51;39.97;33.01;50.10;;
66463;Laerm;56827;52.178;4.500;2023-07-08T01:04:04;39.20;33.76;50.52;;
66463;Laerm;56827;52.178;4.500;2023-07-08T01:04:33;40.74;32.19;48.66;;
66463;Laerm;56827;52.178;4.500;2023-07-08T01:05:05;37.58;32.07;46.77;;
66463;Laerm;56827;52.178;4.500;2023-07-08T01:05:17;42.26;33.61;47.59;;
66463;Laerm;56827;52.178;4.500;2023-07-08T01:05:29;41.42;32.67;49.12;;
66463;Laerm;56827;52.178;4.500;2023-07-08T01:05:40;40.69;32.82;47.04;;
66463;Laerm;56827;52.178;4.500;2023-07-08T01:05:52;47.48;33.02;58.82;;
66463;Laerm;56827;52.178;4.500;2023-07-08T01:06:02;44.69;33.11;54.71;;
66463;Laerm;56827;52.178;4.500;2023-07-08T01:06:13;44.32;34.45;51.17;;
66463;Laerm;56827;52.178;4.500;2023-07-08T01:06:23;42.70;34.38;48.24;;
66463;Laerm;56827;52.178;4.500;2023-07-08T01:06:41;47.14;37.87;53.63;;
66463;Laerm;56827;52.178;4.500;2023-07-08T01:06:54;41.82;36.51;47.70;;
66463;Laerm;56827;52.178;4.500;2023-07-08T01:07:07;37.89;33.97;46.71;;
66463;Laerm;56827;52.178;4.500;2023-07-08T01:07:19;39.34;32.28;47.53;;
66463;Laerm;56827;52.178;4.500;2023-07-08T01:07:32;40.94;33.29;47.65;;
66463;Laerm;56827;52.178;4.500;2023-07-08T01:07:44;41.09;32.32;50.12;;
66463;Laerm;56827;52.178;4.500;2023-07-08T01:07:56;39.70;35.21;47.48;;
66463;Laerm;56827;52.178;4.500;2023-07-08T01:08:07;42.98;38.11;48.18;;
66463;Laerm;56827;52.178;4.500;2023-07-08T01:08:17;41.80;38.51;45.85;;
66463;Laerm;56827;52.178;4.500;2023-07-08T01:08:28;40.78;37.38;45.21;;
66463;Laerm;56827;52.178;4.500;2023-07-08T01:08:38;40.49;36.78;49.44;;
66463;Laerm;56827;52.178;4.500;2023-07-08T01:08:49;39.23;36.02;43.57;;
66463;Laerm;56827;52.178;4.500;2023-07-08T01:09:03;41.00;34.99;49.84;;
66463;Laerm;56827;52.178;4.500;2023-07-08T01:09:14;43.98;36.40;50.95;;
66463;Laerm;56827;52.178;4.500;2023-07-08T01:09:29;43.79;35.53;48.53;;
66463;Laerm;56827;52.178;4.500;2023-07-08T01:09:41;41.76;36.34;47.63;;
66463;Laerm;56827;52.178;4.500;2023-07-08T01:09:56;39.71;37.76;41.98;;
66463;Laerm;56827;52.178;4.500;2023-07-08T01:10:08;37.88;34.88;42.35;;
66463;Laerm;56827;52.178;4.500;2023-07-08T01:10:24;36.64;33.62;39.63;;
66463;Laerm;56827;52.178;4.500;2023-07-08T01:10:42;38.65;35.18;41.78;;